createdAt,value
2022-08-17T00:02:25.566Z,6.43
2022-08-17T00:05:17.463Z,6.70
2022-08-17T00:08:07.403Z,6.68
2022-08-17T00:10:57.834Z,7.28
2022-08-17T00:13:57.781Z,6.97
2022-08-17T00:16:56.839Z,10.07
2022-08-17T00:19:47.339Z,6.60
2022-08-17T00:22:37.976Z,7.72
2022-08-17T00:25:28.170Z,7.95
2022-08-17T00:28:19.467Z,8.25
2022-08-17T00:31:11.814Z,6.88
2022-08-17T00:34:01.708Z,7.60
2022-08-17T00:36:52.617Z,7.72
2022-08-17T00:39:44.323Z,7.57
2022-08-17T00:42:34.043Z,8.15
2022-08-17T00:45:24.692Z,6.25
2022-08-17T00:48:29.088Z,6.10
2022-08-17T00:51:33.517Z,6.30
2022-08-17T00:54:30.056Z,5.43
2022-08-17T00:57:29.678Z,6.53
2022-08-17T01:00:33.189Z,6.18
2022-08-17T01:03:28.673Z,4.85
2022-08-17T01:06:20.283Z,5.10
2022-08-17T01:09:11.164Z,5.88
2022-08-17T01:12:11.885Z,7.38
2022-08-17T01:15:01.909Z,6.50
2022-08-17T01:17:51.812Z,6.05
2022-08-17T01:20:50.143Z,6.00
2022-08-17T01:23:43.474Z,6.00
2022-08-17T01:26:34.869Z,6.75
2022-08-17T01:29:25.901Z,4.60
2022-08-17T01:32:17.323Z,4.57
2022-08-17T01:35:08.891Z,4.75
2022-08-17T01:37:58.560Z,6.65
2022-08-17T01:40:57.342Z,6.18
2022-08-17T01:43:57.703Z,8.30
2022-08-17T01:46:47.072Z,8.38
2022-08-17T01:49:38.336Z,8.25
2022-08-17T01:52:28.414Z,6.28
2022-08-17T01:55:25.866Z,6.63
2022-08-17T01:58:20.408Z,5.32
2022-08-17T02:01:11.544Z,8.13
2022-08-17T02:04:03.453Z,4.25
2022-08-17T02:06:55.251Z,5.20
2022-08-17T02:09:45.811Z,3.97
2022-08-17T02:12:44.153Z,4.75
2022-08-17T02:15:36.024Z,4.57
2022-08-17T02:18:27.775Z,4.43
2022-08-17T02:21:17.767Z,4.68
2022-08-17T02:24:12.404Z,6.57
2022-08-17T02:27:03.294Z,4.03
2022-08-17T02:29:53.275Z,5.10
2022-08-17T02:32:43.525Z,6.03
2022-08-17T02:35:33.841Z,6.30
2022-08-17T02:44:39.975Z,4.55
2022-08-17T02:47:31.268Z,3.83
2022-08-17T02:50:27.503Z,3.50
2022-08-17T02:53:18.330Z,3.22
2022-08-17T02:56:08.724Z,3.92
2022-08-17T02:58:58.570Z,3.13
2022-08-17T03:01:52.446Z,3.05
2022-08-17T03:04:45.915Z,4.07
2022-08-17T03:07:36.409Z,3.47
2022-08-17T03:10:27.329Z,2.97
2022-08-17T03:13:18.098Z,3.50
2022-08-17T03:16:08.657Z,3.22
2022-08-17T03:18:59.222Z,3.67
2022-08-17T03:21:55.135Z,2.88
2022-08-17T03:24:45.485Z,2.97
2022-08-17T03:27:35.338Z,3.20
2022-08-17T03:30:30.925Z,3.53
2022-08-17T03:33:22.080Z,3.72
2022-08-17T03:36:11.831Z,3.08
2022-08-17T03:39:01.822Z,2.63
2022-08-17T03:41:51.872Z,4.38
2022-08-17T03:44:42.834Z,3.20
2022-08-17T03:47:51.577Z,4.20
2022-08-17T03:51:00.517Z,3.63
2022-08-17T03:54:15.060Z,4.25
2022-08-17T03:57:08.217Z,3.17
2022-08-17T03:59:58.574Z,3.05
2022-08-17T04:02:48.472Z,3.20
2022-08-17T04:05:39.289Z,3.50
2022-08-17T04:08:30.870Z,4.18
2022-08-17T04:11:21.157Z,3.55
2022-08-17T04:14:12.359Z,2.85
2022-08-17T04:17:03.464Z,3.65
2022-08-17T04:19:54.914Z,22.52
2022-08-17T04:23:08.469Z,3.60
2022-08-17T04:25:57.775Z,4.20
2022-08-17T04:28:48.118Z,3.63
2022-08-17T04:31:38.995Z,4.30
2022-08-17T04:34:28.761Z,4.53
2022-08-17T04:37:18.291Z,5.25
2022-08-17T04:40:27.485Z,4.85
2022-08-17T04:43:20.521Z,3.53
2022-08-17T04:46:13.520Z,3.90
2022-08-17T04:49:07.446Z,3.63
2022-08-17T04:52:00.112Z,4.90
2022-08-17T04:54:54.068Z,2.65
2022-08-17T04:57:45.205Z,3.92
2022-08-17T05:00:35.592Z,3.33
2022-08-17T05:03:29.005Z,3.80
2022-08-17T05:06:19.570Z,2.75
2022-08-17T05:09:09.333Z,4.05
2022-08-17T05:12:06.387Z,3.40
2022-08-17T05:14:58.180Z,3.22
2022-08-17T05:17:48.005Z,2.92
2022-08-17T05:20:40.213Z,2.97
2022-08-17T05:23:42.025Z,2.70
2022-08-17T05:26:34.018Z,3.25
2022-08-17T05:29:35.174Z,4.93
2022-08-17T05:32:38.880Z,3.45
2022-08-17T05:35:33.965Z,3.35
2022-08-17T05:38:25.878Z,4.43
2022-08-17T05:41:16.019Z,3.90
2022-08-17T05:44:06.031Z,6.75
2022-08-17T05:46:57.406Z,4.65
2022-08-17T05:49:49.033Z,3.20
2022-08-17T05:52:52.684Z,3.28
2022-08-17T05:55:48.004Z,3.50
2022-08-17T05:58:44.353Z,3.47
2022-08-17T06:01:46.449Z,3.70
2022-08-17T06:04:57.850Z,3.80
2022-08-17T06:08:02.148Z,3.88
2022-08-17T06:10:55.252Z,3.40
2022-08-17T06:13:50.385Z,3.70
2022-08-17T06:16:43.390Z,3.72
2022-08-17T06:19:49.521Z,4.70
2022-08-17T06:22:48.466Z,5.18
2022-08-17T06:25:50.663Z,3.67
2022-08-17T06:28:49.510Z,4.60
2022-08-17T06:31:41.413Z,5.30
2022-08-17T06:34:31.405Z,6.75
2022-08-17T06:37:40.551Z,5.85
2022-08-17T06:40:50.122Z,5.80
2022-08-17T06:43:51.164Z,6.60
2022-08-17T06:46:49.966Z,6.10
2022-08-17T06:49:55.650Z,5.13
2022-08-17T06:53:24.907Z,5.43
2022-08-17T06:56:53.962Z,6.45
2022-08-17T07:00:03.689Z,5.15
2022-08-17T07:03:22.431Z,5.35
2022-08-17T07:06:17.569Z,4.93
2022-08-17T07:09:20.019Z,4.57
2022-08-17T07:12:26.696Z,5.38
2022-08-17T07:15:21.632Z,4.20
2022-08-17T07:18:14.408Z,4.40
2022-08-17T07:21:17.051Z,4.55
2022-08-17T07:24:44.548Z,4.40
2022-08-17T07:27:46.783Z,4.03
2022-08-17T07:31:03.496Z,3.53
2022-08-17T07:34:08.174Z,3.83
2022-08-17T07:37:07.751Z,4.13
2022-08-17T07:39:59.690Z,7.30
2022-08-17T07:43:23.217Z,4.18
2022-08-17T07:46:43.275Z,5.82
2022-08-17T07:49:33.401Z,5.75
2022-08-17T07:52:50.313Z,5.18
2022-08-17T07:55:43.228Z,4.78
2022-08-17T07:58:34.427Z,4.65
2022-08-17T08:01:24.175Z,14.25
2022-08-17T08:08:06.808Z,3.85
2022-08-17T08:11:06.933Z,6.68
2022-08-17T08:13:56.150Z,6.13
2022-08-17T08:17:03.721Z,4.25
2022-08-17T08:19:56.613Z,3.92
2022-08-17T08:23:13.405Z,4.43
2022-08-17T08:26:21.819Z,4.10
2022-08-17T08:29:33.356Z,4.13
2022-08-17T08:32:57.268Z,6.20
2022-08-17T08:35:55.833Z,5.22
2022-08-17T08:39:06.427Z,4.30
2022-08-17T08:42:10.573Z,3.95
2022-08-17T08:45:22.639Z,4.50
2022-08-17T08:48:53.874Z,4.93
2022-08-17T08:51:51.661Z,5.43
2022-08-17T08:55:14.834Z,5.22
2022-08-17T08:58:42.032Z,4.68
2022-08-17T09:01:35.096Z,5.75
2022-08-17T09:05:10.695Z,4.95
2022-08-17T09:08:12.469Z,6.38
2022-08-17T09:11:15.845Z,8.93
2022-08-17T09:14:21.752Z,5.32
2022-08-17T09:17:23.420Z,3.40
2022-08-17T09:20:49.935Z,3.90
2022-08-17T09:24:06.498Z,3.63
2022-08-17T09:27:07.677Z,4.68
2022-08-17T09:30:12.083Z,3.45
2022-08-17T09:33:07.058Z,4.95
2022-08-17T09:36:05.097Z,5.22
2022-08-17T09:38:57.950Z,4.90
2022-08-17T09:41:51.053Z,4.90
2022-08-17T09:45:03.532Z,3.55
2022-08-17T09:48:06.337Z,4.28
2022-08-17T09:51:05.174Z,12.25
2022-08-17T09:54:05.184Z,5.15
2022-08-17T09:57:29.258Z,5.22
2022-08-17T10:00:30.552Z,5.50
2022-08-17T10:03:29.869Z,6.57
2022-08-17T10:06:26.896Z,6.18
2022-08-17T10:09:43.139Z,16.95
2022-08-17T10:12:46.379Z,5.10
2022-08-17T10:15:45.342Z,5.60
2022-08-17T10:18:48.177Z,4.68
2022-08-17T10:22:01.351Z,6.50
2022-08-17T10:25:23.263Z,7.93
2022-08-17T10:28:25.877Z,7.88
2022-08-17T10:31:36.448Z,7.65
2022-08-17T10:35:03.214Z,8.05
2022-08-17T10:38:24.723Z,7.90
2022-08-17T10:41:26.506Z,7.45
2022-08-17T10:44:40.391Z,7.18
2022-08-17T10:48:05.766Z,6.85
2022-08-17T10:50:59.068Z,4.68
2022-08-17T10:53:49.799Z,4.90
2022-08-17T10:56:51.965Z,5.50
2022-08-17T10:59:43.287Z,6.47
2022-08-17T11:02:51.612Z,4.53
2022-08-17T11:06:00.196Z,5.65
2022-08-17T11:09:09.228Z,4.65
2022-08-17T11:12:17.512Z,7.07
2022-08-17T11:15:33.996Z,7.70
2022-08-17T11:18:58.759Z,5.75
2022-08-17T11:22:03.649Z,14.02
2022-08-17T11:24:55.078Z,11.63
2022-08-17T11:27:46.809Z,7.95
2022-08-17T11:30:50.706Z,11.98
2022-08-17T11:33:46.340Z,7.00
2022-08-17T11:36:51.855Z,5.85
2022-08-17T11:39:42.267Z,7.53
2022-08-17T11:42:44.934Z,8.00
2022-08-17T11:45:56.748Z,13.50
2022-08-17T11:49:23.417Z,19.92
2022-08-17T11:52:41.642Z,13.30
2022-08-17T11:55:43.145Z,10.80
2022-08-17T11:58:39.335Z,9.82
2022-08-17T12:01:58.081Z,7.82
2022-08-17T12:05:09.725Z,9.65
2022-08-17T12:08:08.386Z,15.65
2022-08-17T12:12:04.589Z,13.13
2022-08-17T12:15:08.032Z,8.98
2022-08-17T12:17:57.672Z,10.32
2022-08-17T12:20:56.620Z,9.50
2022-08-17T12:24:11.829Z,9.07
2022-08-17T12:27:03.906Z,9.15
2022-08-17T12:29:56.075Z,11.48
2022-08-17T12:32:49.074Z,9.90
2022-08-17T12:35:40.365Z,10.45
2022-08-17T12:38:34.019Z,10.25
2022-08-17T12:41:42.274Z,12.88
2022-08-17T12:44:36.339Z,10.00
2022-08-17T12:47:39.052Z,9.85
2022-08-17T12:50:30.278Z,8.15
2022-08-17T12:53:31.563Z,7.90
2022-08-17T12:56:21.886Z,8.40
2022-08-17T12:59:12.791Z,9.40
2022-08-17T13:02:04.270Z,6.97
2022-08-17T13:04:53.419Z,5.07
2022-08-17T13:07:44.947Z,5.35
2022-08-17T13:10:37.221Z,6.20
2022-08-17T13:13:37.095Z,4.93
2022-08-17T13:16:32.933Z,6.13
2022-08-17T13:19:40.016Z,6.82
2022-08-17T13:22:33.788Z,6.07
2022-08-17T13:25:23.796Z,6.30
2022-08-17T13:28:35.761Z,6.13
2022-08-17T13:31:52.806Z,6.97
2022-08-17T13:35:13.082Z,5.55
2022-08-17T13:38:03.165Z,6.03
2022-08-17T13:40:54.889Z,6.85
2022-08-17T13:43:52.007Z,7.30
2022-08-17T13:46:41.309Z,7.20
2022-08-17T13:49:41.510Z,6.97
2022-08-17T13:52:42.754Z,6.13
2022-08-17T13:55:34.358Z,6.72
2022-08-17T13:58:35.916Z,6.50
2022-08-17T14:01:58.253Z,6.28
2022-08-17T14:04:49.417Z,6.32
2022-08-17T14:07:40.881Z,6.55
2022-08-17T14:10:32.323Z,6.78
2022-08-17T14:13:23.694Z,7.35
2022-08-17T14:16:13.570Z,6.30
2022-08-17T14:19:03.633Z,6.40
2022-08-17T14:22:00.275Z,5.80
2022-08-17T14:24:50.880Z,5.55
2022-08-17T14:27:53.635Z,6.55
2022-08-17T14:30:44.221Z,5.70
2022-08-17T14:33:36.397Z,6.20
2022-08-17T14:36:26.435Z,5.88
2022-08-17T14:39:17.433Z,5.43
2022-08-17T14:42:09.897Z,5.35
2022-08-17T14:45:07.570Z,5.00
2022-08-17T14:48:18.213Z,5.47
2022-08-17T14:51:08.395Z,6.55
2022-08-17T14:53:58.733Z,5.85
2022-08-17T14:56:49.452Z,5.57
2022-08-17T14:59:54.274Z,5.70
2022-08-17T15:02:47.599Z,6.05
2022-08-17T15:05:39.189Z,6.20
2022-08-17T15:08:30.639Z,6.00
2022-08-17T15:11:20.554Z,6.03
2022-08-17T15:14:10.213Z,5.82
2022-08-17T15:16:59.489Z,6.38
2022-08-17T15:19:49.041Z,6.80
2022-08-17T15:22:39.929Z,6.90
2022-08-17T15:25:33.170Z,7.32
2022-08-17T15:28:25.109Z,7.22
2022-08-17T15:31:15.172Z,7.45
2022-08-17T15:34:07.933Z,7.20
2022-08-17T15:36:58.321Z,7.70
2022-08-17T15:39:47.725Z,8.15
2022-08-17T15:42:37.972Z,7.88
2022-08-17T15:45:28.390Z,7.75
2022-08-17T15:48:19.938Z,8.02
2022-08-17T15:51:17.974Z,7.95
2022-08-17T15:54:19.057Z,7.60
2022-08-17T15:57:11.735Z,8.82
2022-08-17T16:00:01.789Z,9.90
2022-08-17T16:03:45.128Z,10.23
2022-08-17T16:06:11.472Z,12.65
2022-08-17T16:09:01.864Z,13.68
2022-08-17T16:11:55.171Z,13.45
2022-08-17T16:14:46.897Z,12.68
2022-08-17T16:17:40.310Z,10.52
2022-08-17T16:20:31.997Z,11.55
2022-08-17T16:23:21.888Z,10.55
2022-08-17T16:26:11.855Z,10.32
2022-08-17T16:29:03.900Z,10.38
2022-08-17T16:31:54.789Z,9.95
2022-08-17T16:34:45.387Z,10.57
2022-08-17T16:37:35.800Z,10.05
2022-08-17T16:40:28.880Z,10.32
2022-08-17T16:43:18.881Z,9.70
2022-08-17T16:46:08.644Z,9.20
2022-08-17T16:49:01.554Z,8.82
2022-08-17T16:51:51.828Z,8.25
2022-08-17T16:54:44.797Z,7.15
2022-08-17T16:57:35.371Z,6.60
2022-08-17T17:00:24.664Z,6.10
2022-08-17T17:03:19.399Z,6.15
2022-08-17T17:06:16.991Z,6.22
2022-08-17T17:09:12.762Z,6.15
2022-08-17T17:12:05.402Z,6.20
2022-08-17T17:15:00.593Z,5.28
2022-08-17T17:17:50.998Z,5.30
2022-08-17T17:20:55.396Z,4.60
2022-08-17T17:23:50.399Z,4.78
2022-08-17T17:26:42.416Z,5.18
2022-08-17T17:30:08.840Z,5.10
2022-08-17T17:33:05.885Z,5.07
2022-08-17T17:35:56.816Z,4.55
2022-08-17T17:38:50.933Z,5.22
2022-08-17T17:41:59.581Z,4.88
2022-08-17T17:45:14.161Z,4.57
2022-08-17T17:48:03.841Z,4.45
2022-08-17T17:51:11.404Z,4.18
2022-08-17T17:54:15.082Z,4.03
2022-08-17T17:57:12.891Z,5.22
2022-08-17T18:00:10.981Z,4.43
2022-08-17T18:03:26.986Z,4.93
2022-08-17T18:06:49.661Z,4.57
2022-08-17T18:10:01.032Z,5.35
2022-08-17T18:12:57.253Z,5.55
2022-08-17T18:15:52.574Z,4.72
2022-08-17T18:18:45.998Z,4.88
2022-08-17T18:21:41.197Z,4.30
2022-08-17T18:24:39.098Z,4.15
2022-08-17T18:27:57.292Z,4.13
2022-08-17T18:30:47.188Z,3.58
2022-08-17T18:33:40.138Z,3.83
2022-08-17T18:36:32.883Z,3.92
2022-08-17T18:39:28.808Z,4.30
2022-08-17T18:42:30.359Z,3.30
2022-08-17T18:45:42.152Z,4.30
2022-08-17T18:48:37.468Z,4.10
2022-08-17T18:51:40.606Z,4.10
2022-08-17T18:54:32.106Z,4.40
2022-08-17T18:57:34.255Z,4.53
2022-08-17T19:00:42.872Z,4.38
2022-08-17T19:03:32.906Z,4.57
2022-08-17T19:06:30.767Z,4.68
2022-08-17T19:09:33.971Z,4.75
2022-08-17T19:12:29.253Z,4.95
2022-08-17T19:15:25.187Z,5.15
2022-08-17T19:18:26.147Z,5.53
2022-08-17T19:21:37.928Z,5.82
2022-08-17T19:24:29.894Z,5.45
2022-08-17T19:27:41.764Z,6.65
2022-08-17T19:30:37.731Z,6.53
2022-08-17T19:33:32.728Z,6.93
2022-08-17T19:36:50.991Z,6.70
2022-08-17T19:39:52.415Z,7.32
2022-08-17T19:43:06.215Z,8.13
2022-08-17T19:46:21.271Z,8.88
2022-08-17T19:49:18.212Z,9.27
2022-08-17T19:52:39.008Z,9.07
2022-08-17T19:55:44.932Z,8.98
2022-08-17T19:59:22.678Z,10.20
2022-08-17T20:02:25.964Z,9.90
2022-08-17T20:06:00.881Z,10.10
2022-08-17T20:09:18.331Z,10.30
2022-08-17T20:12:13.510Z,10.73
2022-08-17T20:15:13.333Z,12.57
2022-08-17T20:18:07.633Z,12.20
2022-08-17T20:21:27.257Z,13.85
2022-08-17T20:24:25.363Z,12.57
2022-08-17T20:27:18.194Z,12.88
2022-08-17T20:30:35.820Z,13.45
2022-08-17T20:33:31.174Z,12.32
2022-08-17T20:36:24.021Z,11.73
2022-08-17T20:39:37.488Z,11.82
2022-08-17T20:42:28.444Z,13.25
2022-08-17T20:45:23.509Z,16.92
2022-08-17T20:48:36.982Z,16.52
2022-08-17T20:51:36.126Z,15.18
2022-08-17T20:54:56.587Z,15.18
2022-08-17T20:57:48.692Z,12.60
2022-08-17T21:00:47.088Z,12.95
2022-08-17T21:03:51.304Z,12.63
2022-08-17T21:07:19.749Z,13.30
2022-08-17T21:10:28.404Z,12.98
2022-08-17T21:13:18.030Z,13.25
2022-08-17T21:16:10.616Z,12.93
2022-08-17T21:19:07.533Z,11.65
2022-08-17T21:22:13.405Z,12.15
2022-08-17T21:25:21.331Z,12.13
2022-08-17T21:29:00.518Z,11.98
2022-08-17T21:32:06.675Z,13.50
2022-08-17T21:35:33.584Z,20.15
2022-08-17T21:38:38.127Z,16.23
2022-08-17T21:41:56.136Z,16.00
2022-08-17T21:44:51.395Z,17.42
2022-08-17T21:47:46.581Z,17.23
2022-08-17T21:50:36.981Z,19.30
2022-08-17T21:53:33.262Z,21.60
2022-08-17T21:56:31.758Z,21.58
2022-08-17T21:59:21.202Z,18.83
2022-08-17T22:02:32.808Z,18.73
2022-08-17T22:05:39.406Z,17.50
2022-08-17T22:08:29.083Z,16.50
2022-08-17T22:11:19.907Z,18.20
2022-08-17T22:14:19.452Z,19.42
2022-08-17T22:17:17.634Z,18.10
2022-08-17T22:20:17.306Z,16.23
2022-08-17T22:23:31.796Z,16.48
2022-08-17T22:26:26.809Z,14.93
2022-08-17T22:29:57.400Z,13.63
2022-08-17T22:32:50.686Z,12.88
2022-08-17T22:35:45.325Z,12.13
2022-08-17T22:38:36.053Z,12.00
2022-08-17T22:41:33.681Z,11.55
2022-08-17T22:44:33.202Z,10.95
2022-08-17T22:47:52.855Z,11.38
2022-08-17T22:50:42.678Z,12.20
2022-08-17T22:53:50.444Z,14.32
2022-08-17T22:57:24.098Z,13.45
2022-08-17T23:00:32.780Z,13.05
2022-08-17T23:03:24.512Z,13.63
2022-08-17T23:06:14.590Z,12.80
2022-08-17T23:09:07.195Z,13.55
2022-08-17T23:11:59.899Z,14.57
2022-08-17T23:14:52.730Z,14.73
2022-08-17T23:17:44.490Z,14.00
2022-08-17T23:20:40.899Z,15.02
2022-08-17T23:23:30.289Z,14.18
2022-08-17T23:26:22.327Z,14.55
2022-08-17T23:29:11.792Z,15.15
2022-08-17T23:32:02.846Z,13.60
2022-08-17T23:34:52.947Z,13.18
2022-08-17T23:37:42.805Z,10.18
2022-08-17T23:40:32.571Z,11.52
2022-08-17T23:43:25.584Z,7.50
2022-08-17T23:46:18.866Z,6.53
2022-08-17T23:49:08.974Z,6.50
2022-08-17T23:52:00.462Z,5.25
2022-08-17T23:54:51.092Z,5.57
2022-08-17T23:57:42.755Z,4.60
